Avalon, Mississippi
Current Conditions -  °F | °C
As of 2:53 PM on Sunday 21 Dec 2014 (Local Time) from KGWO Reporting Station
Clear Clear  
Wind Chill: 61°   Ceiling: Unl
Heat Index: 61°   Visibility: 10mi
Dew Point: 42°   Wind: 7mph
Humidity: 50%   Direction: 110°ESE
Pressure: 30.02"   Gusts: NA
Location:  33.65°N, 90.09°W
Report Text: KGWO 212053Z AUTO 11006KT 10SM CLR 16/06 A3002 RMK AO2 SLP164 T01610056 56031
Loading
Personal Weather Stations






























Interactive Weather Map New forecast layout! Learn more

10-Day Weather Forecast

Advertisements
Track Severe Weather on mobile